createdAt,value
2022-10-03T00:30:13.432Z,1016.3
2022-10-03T00:30:53.776Z,1016.29
2022-10-03T00:31:34.303Z,1016.32
2022-10-03T00:32:14.752Z,1016.34
2022-10-03T00:32:55.260Z,1016.35
2022-10-03T00:33:35.746Z,1016.39
2022-10-03T00:34:16.197Z,1016.33
2022-10-03T00:34:56.712Z,1016.39
2022-10-03T00:35:37.150Z,1016.4
2022-10-03T00:36:17.654Z,1016.37
2022-10-03T00:36:58.176Z,1016.4
2022-10-03T00:37:38.651Z,1016.41
2022-10-03T00:38:19.088Z,1016.4
2022-10-03T00:38:59.640Z,1016.42
2022-10-03T00:39:40.114Z,1016.43
2022-10-03T00:40:20.618Z,1016.44
2022-10-03T00:41:01.138Z,1016.43
2022-10-03T00:41:41.890Z,1016.43
2022-10-03T00:42:22.061Z,1016.4
2022-10-03T00:43:02.560Z,1016.44
2022-10-03T00:43:43.073Z,1016.39
2022-10-03T00:44:23.617Z,1016.38
2022-10-03T00:45:04.085Z,1016.36
2022-10-03T00:45:44.630Z,1016.36
2022-10-03T00:46:25.075Z,1016.35
2022-10-03T00:47:05.541Z,1016.39
2022-10-03T00:47:46.072Z,1016.37
2022-10-03T00:48:26.535Z,1016.39
2022-10-03T00:49:47.542Z,1016.39
2022-10-03T00:50:28.017Z,1016.37
2022-10-03T00:51:08.492Z,1016.39
2022-10-03T00:51:48.980Z,1016.43
2022-10-03T00:52:29.537Z,1016.44
2022-10-03T00:53:09.991Z,1016.42
2022-10-03T00:53:50.521Z,1016.43
2022-10-03T00:54:31.086Z,1016.45
2022-10-03T00:55:11.577Z,1016.46
2022-10-03T00:55:52.071Z,1016.42
2022-10-03T00:56:32.595Z,1016.43
2022-10-03T00:57:13.076Z,1016.45
2022-10-03T00:57:53.595Z,1016.41
2022-10-03T00:58:34.272Z,1016.44
2022-10-03T00:59:14.707Z,1016.44
2022-10-03T00:59:55.247Z,1016.39
2022-10-03T01:00:35.798Z,1016.4
2022-10-03T01:01:16.273Z,1016.39
2022-10-03T01:01:56.809Z,1016.39
2022-10-03T01:03:17.826Z,1016.39
2022-10-03T01:03:58.472Z,1016.4
2022-10-03T01:04:38.999Z,1016.37
2022-10-03T01:05:19.447Z,1016.42
2022-10-03T01:05:59.949Z,1016.42
2022-10-03T01:06:40.443Z,1016.41
2022-10-03T01:07:20.945Z,1016.45
2022-10-03T01:08:01.398Z,1016.43
2022-10-03T01:08:41.914Z,1016.45
2022-10-03T01:09:22.401Z,1016.47
2022-10-03T01:10:02.891Z,1016.46
2022-10-03T01:10:43.358Z,1016.49
2022-10-03T01:11:23.939Z,1016.5
2022-10-03T01:12:04.478Z,1016.48
2022-10-03T01:12:44.990Z,1016.48
2022-10-03T01:13:25.518Z,1016.49
2022-10-03T01:14:06.030Z,1016.5
2022-10-03T01:14:46.649Z,1016.52
2022-10-03T01:15:27.144Z,1016.52
2022-10-03T01:16:07.697Z,1016.5
2022-10-03T01:16:48.156Z,1016.48
2022-10-03T01:17:28.678Z,1016.52
2022-10-03T01:18:09.151Z,1016.54
2022-10-03T01:18:49.631Z,1016.51
2022-10-03T01:22:34.501Z,1016.53
2022-10-03T01:25:02.882Z,1016.5
2022-10-03T01:25:43.294Z,1016.47
2022-10-03T01:26:23.737Z,1016.48
2022-10-03T01:27:04.250Z,1016.51
2022-10-03T01:27:44.735Z,1016.5
2022-10-03T01:28:25.279Z,1016.53
2022-10-03T01:29:05.711Z,1016.53
2022-10-03T01:29:46.179Z,1016.5
2022-10-03T01:30:26.652Z,1016.54
2022-10-03T01:31:07.187Z,1016.51
2022-10-03T01:31:47.697Z,1016.52
2022-10-03T01:32:28.148Z,1016.48
2022-10-03T01:33:08.593Z,1016.48
2022-10-03T01:33:49.117Z,1016.44
2022-10-03T01:34:29.599Z,1016.49
2022-10-03T01:35:10.150Z,1016.44
2022-10-03T01:35:50.572Z,1016.48
2022-10-03T01:36:31.045Z,1016.5
2022-10-03T01:37:11.574Z,1016.5
2022-10-03T01:37:52.058Z,1016.47
2022-10-03T01:38:32.537Z,1016.49
2022-10-03T01:39:13.032Z,1016.49
2022-10-03T01:39:53.474Z,1016.49
2022-10-03T01:40:33.929Z,1016.49
2022-10-03T01:41:14.392Z,1016.52
2022-10-03T01:41:54.970Z,1016.47
2022-10-03T01:42:35.459Z,1016.46
2022-10-03T01:43:15.930Z,1016.45
2022-10-03T01:43:56.451Z,1016.46
2022-10-03T01:44:36.920Z,1016.45
2022-10-03T01:45:17.400Z,1016.47
2022-10-03T01:45:57.922Z,1016.46
2022-10-03T01:46:38.425Z,1016.48
2022-10-03T01:47:18.918Z,1016.47
2022-10-03T01:47:59.415Z,1016.46
2022-10-03T01:48:39.849Z,1016.48
2022-10-03T01:49:20.343Z,1016.46
2022-10-03T01:50:00.819Z,1016.46
2022-10-03T01:50:41.350Z,1016.46
2022-10-03T01:51:21.811Z,1016.47
2022-10-03T01:52:02.300Z,1016.48
2022-10-03T01:52:42.798Z,1016.49
2022-10-03T01:53:23.269Z,1016.51
2022-10-03T01:54:03.802Z,1016.5
2022-10-03T01:54:44.309Z,1016.48
2022-10-03T01:55:24.819Z,1016.52
2022-10-03T01:56:05.274Z,1016.48
2022-10-03T01:56:45.722Z,1016.5
2022-10-03T01:57:26.195Z,1016.5
2022-10-03T01:58:06.649Z,1016.53
2022-10-03T01:58:47.170Z,1016.53
2022-10-03T01:59:27.598Z,1016.53
2022-10-03T02:00:08.074Z,1016.56
2022-10-03T02:00:48.677Z,1016.54
2022-10-03T02:01:29.057Z,1016.59
2022-10-03T02:02:09.589Z,1016.57
2022-10-03T02:02:49.997Z,1016.59
2022-10-03T02:03:30.633Z,1016.63
2022-10-03T02:04:10.982Z,1016.63
2022-10-03T02:04:51.489Z,1016.68
2022-10-03T02:05:31.978Z,1016.71
2022-10-03T02:06:12.454Z,1016.72
2022-10-03T02:06:52.940Z,1016.68
2022-10-03T02:07:33.430Z,1016.71
2022-10-03T02:08:13.931Z,1016.74
2022-10-03T02:08:54.434Z,1016.7
2022-10-03T02:09:34.920Z,1016.72
2022-10-03T02:10:15.403Z,1016.75
2022-10-03T02:10:55.950Z,1016.74
2022-10-03T02:11:36.669Z,1016.76
2022-10-03T02:12:16.952Z,1016.74
2022-10-03T02:12:57.484Z,1016.79
2022-10-03T02:13:37.956Z,1016.83
2022-10-03T02:14:18.497Z,1016.87
2022-10-03T02:14:58.969Z,1016.85
2022-10-03T02:16:20.034Z,1016.72
2022-10-03T02:17:00.487Z,1016.9
2022-10-03T02:17:40.910Z,1016.91
2022-10-03T02:19:01.881Z,1016.92
2022-10-03T02:19:42.301Z,1016.87
2022-10-03T02:20:22.756Z,1016.89
2022-10-03T02:21:03.264Z,1016.86
2022-10-03T02:21:43.727Z,1016.86
2022-10-03T02:22:24.259Z,1016.86
2022-10-03T02:23:04.645Z,1016.87
2022-10-03T02:23:45.225Z,1016.83
2022-10-03T02:24:25.632Z,1016.8
2022-10-03T02:25:06.219Z,1016.83
2022-10-03T02:25:46.641Z,1016.83
2022-10-03T02:26:27.162Z,1016.84
2022-10-03T02:27:07.644Z,1016.85
2022-10-03T02:27:48.182Z,1016.8
2022-10-03T02:28:28.688Z,1016.81
2022-10-03T02:29:09.208Z,1016.82
2022-10-03T02:29:49.626Z,1016.8
2022-10-03T02:30:30.083Z,1016.79
2022-10-03T02:31:10.671Z,1016.8
2022-10-03T02:31:51.111Z,1016.74
2022-10-03T02:32:31.522Z,1016.79
2022-10-03T02:33:12.075Z,1016.77
2022-10-03T02:33:52.478Z,1016.77
2022-10-03T02:34:32.986Z,1016.74
2022-10-03T02:35:13.445Z,1016.76
2022-10-03T02:35:53.965Z,1016.73
2022-10-03T02:36:34.397Z,1016.68
2022-10-03T02:37:14.896Z,1016.71
2022-10-03T02:37:55.417Z,1016.73
2022-10-03T02:38:35.860Z,1016.75
2022-10-03T02:39:16.350Z,1016.7
2022-10-03T02:39:56.866Z,1016.7
2022-10-03T02:40:37.332Z,1016.69
2022-10-03T02:41:17.849Z,1016.74
2022-10-03T02:41:58.247Z,1016.71
2022-10-03T02:42:38.755Z,1016.69
2022-10-03T02:43:19.225Z,1016.69
2022-10-03T02:43:59.721Z,1016.71
2022-10-03T02:44:40.242Z,1016.71
2022-10-03T02:45:20.769Z,1016.69
2022-10-03T02:46:01.279Z,1016.68
2022-10-03T02:46:41.761Z,1016.66
2022-10-03T02:47:22.185Z,1016.71
2022-10-03T02:48:20.080Z,1016.66
2022-10-03T02:48:43.180Z,1016.64
2022-10-03T02:49:23.663Z,1016.65
2022-10-03T02:50:04.246Z,1016.67
2022-10-03T02:50:44.635Z,1016.63
2022-10-03T02:51:25.155Z,1016.67
2022-10-03T02:52:05.605Z,1016.64
2022-10-03T02:52:46.119Z,1016.7
2022-10-03T02:53:26.668Z,1016.69
2022-10-03T02:54:07.085Z,1016.71
2022-10-03T02:54:47.630Z,1016.68
2022-10-03T02:55:28.082Z,1016.69
2022-10-03T02:56:08.546Z,1016.7
2022-10-03T02:56:49.067Z,1016.72
2022-10-03T02:57:29.640Z,1016.69
2022-10-03T02:58:10.111Z,1016.71
2022-10-03T02:58:50.561Z,1016.7
2022-10-03T02:59:31.093Z,1016.74
2022-10-03T03:00:11.579Z,1016.73
2022-10-03T03:00:52.139Z,1016.77
2022-10-03T03:01:32.535Z,1016.73
2022-10-03T03:02:13.072Z,1016.73
2022-10-03T03:02:53.536Z,1016.75
2022-10-03T03:03:33.979Z,1016.76
2022-10-03T03:04:14.472Z,1016.78
2022-10-03T03:04:54.997Z,1016.76
2022-10-03T03:05:35.445Z,1016.77
2022-10-03T03:06:15.905Z,1016.81
2022-10-03T03:06:56.387Z,1016.82
2022-10-03T03:07:36.907Z,1016.83
2022-10-03T03:08:17.320Z,1016.84
2022-10-03T03:08:57.778Z,1016.87
2022-10-03T03:09:38.244Z,1016.87
2022-10-03T03:10:18.719Z,1016.88
2022-10-03T03:10:59.212Z,1016.88
2022-10-03T03:11:39.916Z,1016.88
2022-10-03T03:12:20.172Z,1016.87
2022-10-03T03:13:41.406Z,1016.9
2022-10-03T03:14:21.846Z,1016.89
2022-10-03T03:15:02.331Z,1016.89
2022-10-03T03:15:42.888Z,1016.9
2022-10-03T03:16:23.368Z,1016.91
2022-10-03T03:17:03.742Z,1016.95
2022-10-03T03:17:44.244Z,1016.92
2022-10-03T03:18:24.749Z,1016.94
2022-10-03T03:21:23.640Z,1016.96
2022-10-03T03:22:03.756Z,1016.99
2022-10-03T03:22:44.291Z,1016.99
2022-10-03T03:23:24.804Z,1017
2022-10-03T03:24:05.354Z,1016.98
2022-10-03T03:24:45.839Z,1016.96
2022-10-03T03:25:26.349Z,1017.04
2022-10-03T03:26:06.789Z,1016.98
2022-10-03T03:26:47.255Z,1017.01
2022-10-03T03:28:08.302Z,1017.01
2022-10-03T03:28:51.500Z,1016.98
2022-10-03T03:29:29.232Z,1017.02
2022-10-03T03:30:09.717Z,1016.99
2022-10-03T03:30:50.142Z,1017.02
2022-10-03T03:31:30.710Z,1016.97
2022-10-03T03:32:11.165Z,1017.01
2022-10-03T03:32:51.620Z,1017.01
2022-10-03T03:33:32.127Z,1016.99
2022-10-03T03:34:12.610Z,1016.99
2022-10-03T03:34:53.137Z,1017
2022-10-03T03:35:33.590Z,1017
2022-10-03T03:36:14.104Z,1017
2022-10-03T03:36:54.570Z,1016.99
2022-10-03T03:37:35.030Z,1017
2022-10-03T03:38:15.509Z,1016.99
2022-10-03T03:38:56.016Z,1017
2022-10-03T03:39:36.487Z,1016.96
2022-10-03T03:40:17.067Z,1016.96
2022-10-03T03:40:57.490Z,1016.96
2022-10-03T03:41:38.135Z,1017.01
2022-10-03T03:42:18.472Z,1016.95
2022-10-03T03:42:58.960Z,1016.98
2022-10-03T03:43:39.428Z,1016.96
2022-10-03T03:44:19.904Z,1016.99
2022-10-03T03:45:00.377Z,1016.96
2022-10-03T03:45:40.938Z,1016.97
2022-10-03T03:47:01.819Z,1016.97
2022-10-03T03:47:42.325Z,1016.99
2022-10-03T03:48:22.826Z,1017.01
2022-10-03T03:49:03.359Z,1016.99
2022-10-03T03:49:43.824Z,1016.98
2022-10-03T03:50:24.289Z,1016.93
2022-10-03T03:51:05.648Z,1016.93
2022-10-03T03:51:46.134Z,1016.97
2022-10-03T03:52:26.659Z,1016.95
2022-10-03T03:53:07.184Z,1016.94
2022-10-03T03:53:47.659Z,1016.97
2022-10-03T03:54:28.165Z,1016.98
2022-10-03T03:55:08.637Z,1016.98
2022-10-03T03:55:49.128Z,1016.96
2022-10-03T03:56:29.637Z,1016.97
2022-10-03T03:57:10.151Z,1016.97
2022-10-03T03:57:50.655Z,1016.96
2022-10-03T03:58:31.167Z,1016.98
2022-10-03T03:59:11.656Z,1016.98
2022-10-03T03:59:52.194Z,1016.97
2022-10-03T04:00:32.636Z,1017
2022-10-03T04:01:13.140Z,1017.06
2022-10-03T04:01:53.642Z,1017.04
2022-10-03T04:02:34.141Z,1017.05
2022-10-03T04:03:14.567Z,1017.06
2022-10-03T04:03:55.015Z,1017.03
2022-10-03T04:04:35.554Z,1017.08
2022-10-03T04:05:15.967Z,1017.06
2022-10-03T04:06:37.946Z,1017.09
2022-10-03T04:07:21.735Z,1017.09
2022-10-03T04:07:58.923Z,1017.11
2022-10-03T04:08:39.359Z,1017.11
2022-10-03T04:09:19.883Z,1017.13
2022-10-03T04:10:01.265Z,1017.09
2022-10-03T04:10:41.735Z,1017.1
2022-10-03T04:11:22.187Z,1017.09
2022-10-03T04:12:02.742Z,1017.08
2022-10-03T04:12:43.160Z,1017.16
2022-10-03T04:13:23.655Z,1017.15
2022-10-03T04:14:04.191Z,1017.13
2022-10-03T04:17:33.838Z,1017.11
2022-10-03T04:18:14.126Z,1017.11
2022-10-03T04:18:54.609Z,1017.12
2022-10-03T04:19:35.069Z,1017.12
2022-10-03T04:20:15.518Z,1017.07
2022-10-03T04:20:55.975Z,1017.12
2022-10-03T04:21:36.606Z,1017.09
2022-10-03T04:22:16.921Z,1017.07
2022-10-03T04:22:57.392Z,1017.07
2022-10-03T04:23:37.886Z,1017.07
2022-10-03T04:24:18.318Z,1017.06
2022-10-03T04:24:58.781Z,1017.11
2022-10-03T04:25:39.255Z,1017.08
2022-10-03T04:26:19.753Z,1017.14
2022-10-03T04:27:00.237Z,1017.1
2022-10-03T04:27:40.744Z,1017.13
2022-10-03T04:28:21.246Z,1017.14
2022-10-03T04:29:01.712Z,1017.16
2022-10-03T04:29:42.179Z,1017.14
2022-10-03T04:32:40.760Z,1017.18
2022-10-03T04:33:21.115Z,1017.18
2022-10-03T04:34:01.582Z,1017.17
2022-10-03T04:34:42.058Z,1017.18
2022-10-03T04:35:22.517Z,1017.17
2022-10-03T04:36:03.009Z,1017.14
2022-10-03T04:36:43.537Z,1017.18
2022-10-03T04:37:24.008Z,1017.16
2022-10-03T04:38:04.463Z,1017.17
2022-10-03T04:38:45.010Z,1017.14
2022-10-03T04:39:25.571Z,1017.19
2022-10-03T04:40:05.988Z,1017.18
2022-10-03T04:40:46.446Z,1017.18
2022-10-03T04:41:26.964Z,1017.21
2022-10-03T04:42:07.466Z,1017.17
2022-10-03T04:42:47.910Z,1017.19
2022-10-03T04:43:28.397Z,1017.21
2022-10-03T04:44:08.898Z,1017.22
2022-10-03T04:44:49.484Z,1017.21
2022-10-03T04:45:29.944Z,1017.23
2022-10-03T04:46:10.397Z,1017.23
2022-10-03T04:46:50.830Z,1017.22
2022-10-03T04:48:11.812Z,1017.22
2022-10-03T04:48:52.379Z,1017.21
2022-10-03T04:49:32.870Z,1017.22
2022-10-03T04:50:13.330Z,1017.21
2022-10-03T04:50:53.752Z,1017.23
2022-10-03T04:51:34.239Z,1017.25
2022-10-03T04:52:14.716Z,1017.23
2022-10-03T04:52:55.197Z,1017.17
2022-10-03T04:53:35.653Z,1017.19
2022-10-03T04:54:16.171Z,1017.16
2022-10-03T04:54:56.635Z,1017.2
2022-10-03T04:55:37.121Z,1017.18
2022-10-03T04:56:17.603Z,1017.18
2022-10-03T04:56:58.084Z,1017.19
2022-10-03T04:57:38.545Z,1017.16
2022-10-03T04:58:18.989Z,1017.18
2022-10-03T04:58:59.452Z,1017.21
2022-10-03T04:59:39.912Z,1017.22
2022-10-03T05:00:20.395Z,1017.26
2022-10-03T05:01:00.933Z,1017.22
2022-10-03T05:01:41.794Z,1017.21
2022-10-03T05:02:21.867Z,1017.22
2022-10-03T05:03:02.311Z,1017.22
2022-10-03T05:03:42.861Z,1017.23
2022-10-03T05:04:23.308Z,1017.22
2022-10-03T05:05:03.786Z,1017.18
2022-10-03T05:05:44.238Z,1017.23
2022-10-03T05:06:24.730Z,1017.23
2022-10-03T05:07:05.149Z,1017.22
2022-10-03T05:07:45.721Z,1017.23
2022-10-03T05:08:26.146Z,1017.24
2022-10-03T05:09:06.608Z,1017.25
2022-10-03T05:09:47.140Z,1017.23
2022-10-03T05:10:27.543Z,1017.24
2022-10-03T05:11:08.029Z,1017.25
2022-10-03T05:11:48.561Z,1017.23
2022-10-03T05:12:29.032Z,1017.24
2022-10-03T05:13:09.519Z,1017.23
2022-10-03T05:13:49.953Z,1017.23
2022-10-03T05:14:30.485Z,1017.21
2022-10-03T05:15:10.912Z,1017.19
2022-10-03T05:15:51.444Z,1017.22
2022-10-03T05:16:31.969Z,1017.26
2022-10-03T05:17:12.399Z,1017.26
2022-10-03T05:17:52.871Z,1017.26
2022-10-03T05:18:33.354Z,1017.28
2022-10-03T05:19:13.825Z,1017.28
2022-10-03T05:19:54.304Z,1017.28
2022-10-03T05:20:34.800Z,1017.28
2022-10-03T05:21:15.279Z,1017.31
2022-10-03T05:21:55.771Z,1017.3
2022-10-03T05:22:36.230Z,1017.29
2022-10-03T05:23:16.761Z,1017.33
2022-10-03T05:23:57.183Z,1017.31
2022-10-03T05:24:37.676Z,1017.35
2022-10-03T05:25:18.194Z,1017.35
2022-10-03T05:26:10.956Z,1017.38
2022-10-03T05:26:46.430Z,1017.37
2022-10-03T05:27:19.585Z,1017.4
2022-10-03T05:28:00.191Z,1017.4
2022-10-03T05:28:40.638Z,1017.4
2022-10-03T05:29:21.053Z,1017.4
2022-10-03T05:30:01.555Z,1017.4
2022-10-03T05:30:41.988Z,1017.37
2022-10-03T05:31:22.588Z,1017.4
2022-10-03T05:32:02.977Z,1017.4
2022-10-03T05:32:43.424Z,1017.39
2022-10-03T05:33:23.888Z,1017.42
2022-10-03T05:34:04.408Z,1017.42
2022-10-03T05:34:44.816Z,1017.45
2022-10-03T05:35:25.298Z,1017.43
2022-10-03T05:36:05.775Z,1017.46
2022-10-03T05:36:46.233Z,1017.44
2022-10-03T05:37:26.740Z,1017.44
2022-10-03T05:38:07.175Z,1017.44
2022-10-03T05:38:47.667Z,1017.44
2022-10-03T05:39:28.212Z,1017.46
2022-10-03T05:42:26.951Z,1017.45
2022-10-03T05:43:07.387Z,1017.51
2022-10-03T05:43:47.894Z,1017.49
2022-10-03T05:44:28.412Z,1017.44
2022-10-03T05:45:08.852Z,1017.48
2022-10-03T05:45:49.392Z,1017.46
2022-10-03T05:46:29.883Z,1017.45
2022-10-03T05:47:10.363Z,1017.48
2022-10-03T05:47:50.830Z,1017.48
2022-10-03T05:48:31.355Z,1017.47
2022-10-03T05:49:11.780Z,1017.5
2022-10-03T05:49:52.329Z,1017.48
2022-10-03T05:50:32.765Z,1017.49
2022-10-03T05:51:13.373Z,1017.5
2022-10-03T05:51:53.764Z,1017.51
2022-10-03T05:52:34.276Z,1017.49
2022-10-03T06:31:57.369Z,1017.77
2022-10-03T06:32:37.986Z,1017.76
2022-10-03T06:33:18.972Z,1017.79
2022-10-03T06:34:00.004Z,1017.81
2022-10-03T06:34:40.953Z,1017.8
2022-10-03T06:35:21.901Z,1017.77
2022-10-03T06:36:02.873Z,1017.84
2022-10-03T06:39:01.817Z,1017.79
2022-10-03T06:39:42.081Z,1017.8
2022-10-03T06:40:22.569Z,1017.74
2022-10-03T06:41:03.135Z,1017.78
2022-10-03T06:41:43.574Z,1017.79
2022-10-03T06:42:24.065Z,1017.82
2022-10-03T06:43:04.549Z,1017.76
2022-10-03T06:43:45.027Z,1017.8
2022-10-03T06:44:25.481Z,1017.81
2022-10-03T06:45:05.934Z,1017.83
2022-10-03T06:45:46.502Z,1017.79
2022-10-03T06:46:26.977Z,1017.82
2022-10-03T06:47:07.441Z,1017.86
2022-10-03T06:47:47.881Z,1017.9
2022-10-03T06:48:28.411Z,1017.87
2022-10-03T06:49:08.921Z,1017.89
2022-10-03T06:49:50.056Z,1017.89
2022-10-03T06:50:30.506Z,1017.87
2022-10-03T06:51:10.968Z,1017.89
2022-10-03T06:51:51.502Z,1017.93
2022-10-03T06:52:31.972Z,1017.94
2022-10-03T06:53:12.418Z,1017.91
2022-10-03T06:53:52.951Z,1017.89
2022-10-03T06:54:33.429Z,1017.89
2022-10-03T06:55:13.976Z,1017.92
2022-10-03T06:56:34.995Z,1017.9
2022-10-03T06:57:15.408Z,1017.92
2022-10-03T06:57:55.969Z,1017.94
2022-10-03T06:58:36.449Z,1017.6
2022-10-03T06:59:16.868Z,1017.89
2022-10-03T06:59:57.364Z,1017.9
2022-10-03T07:00:37.852Z,1017.92
2022-10-03T07:01:18.453Z,1017.92
2022-10-03T07:01:58.907Z,1017.91
2022-10-03T07:02:39.405Z,1017.93
2022-10-03T07:03:19.850Z,1017.93
2022-10-03T07:04:00.339Z,1017.93
2022-10-03T07:04:40.863Z,1017.92
2022-10-03T07:05:21.895Z,1017.94
2022-10-03T07:06:02.380Z,1017.93
2022-10-03T07:06:42.857Z,1017.95
2022-10-03T07:07:23.357Z,1017.96
2022-10-03T07:08:03.796Z,1017.94
2022-10-03T07:08:44.263Z,1017.97
2022-10-03T07:09:24.727Z,1017.97
2022-10-03T07:10:05.177Z,1017.97
2022-10-03T07:10:45.640Z,1017.99
2022-10-03T07:11:26.141Z,1018
2022-10-03T07:12:09.668Z,1018
2022-10-03T07:12:47.142Z,1017.98
2022-10-03T07:13:27.668Z,1017.95
2022-10-03T07:14:08.143Z,1018.01
2022-10-03T07:14:48.612Z,1017.99
2022-10-03T07:15:43.874Z,1018.02
2022-10-03T07:16:25.866Z,1017.93
2022-10-03T07:16:50.195Z,1017.95
2022-10-03T07:17:30.673Z,1017.99
2022-10-03T07:18:11.066Z,1017.97
2022-10-03T07:18:51.625Z,1018.01
2022-10-03T07:19:32.894Z,1018.03
2022-10-03T07:20:13.309Z,1018.04
2022-10-03T07:20:53.863Z,1018.02
2022-10-03T07:21:34.446Z,1018.04
2022-10-03T07:22:14.859Z,1018.08
2022-10-03T07:22:55.476Z,1018.06
2022-10-03T07:23:35.959Z,1018.05
2022-10-03T07:24:16.537Z,1018.09
2022-10-03T07:24:57.066Z,1018.12
2022-10-03T07:25:37.516Z,1018.15
2022-10-03T07:26:18.052Z,1018.13
2022-10-03T07:26:58.523Z,1018.13
2022-10-03T07:27:38.956Z,1018.14
2022-10-03T07:28:19.490Z,1018.15
2022-10-03T07:29:00.047Z,1018.13
2022-10-03T07:29:40.502Z,1018.16
2022-10-03T07:30:21.052Z,1018.16
2022-10-03T07:31:01.603Z,1018.13
2022-10-03T07:31:43.182Z,1018.13
2022-10-03T07:32:22.567Z,1018.14
2022-10-03T07:33:03.047Z,1018.16
2022-10-03T07:33:43.589Z,1018.16
2022-10-03T07:34:24.068Z,1018.18
2022-10-03T07:35:04.595Z,1018.26
2022-10-03T07:35:45.102Z,1018.2
2022-10-03T07:36:25.592Z,1018.23
2022-10-03T07:37:06.157Z,1018.24
2022-10-03T07:37:46.592Z,1018.24
2022-10-03T07:38:27.078Z,1018.23
2022-10-03T07:39:07.577Z,1018.24
2022-10-03T07:39:48.055Z,1018.24
2022-10-03T07:40:28.597Z,1018.25
2022-10-03T07:41:09.029Z,1018.25
2022-10-03T07:41:49.549Z,1018.28
2022-10-03T07:42:30.095Z,1018.27
2022-10-03T07:43:10.507Z,1018.28
2022-10-03T07:43:51.045Z,1018.29
2022-10-03T07:44:31.493Z,1018.31
2022-10-03T07:45:12.042Z,1018.31
2022-10-03T07:45:52.567Z,1018.34
2022-10-03T07:46:33.466Z,1018.38
2022-10-03T07:47:13.929Z,1018.34
2022-10-03T07:47:54.386Z,1018.35
2022-10-03T07:48:34.854Z,1018.37
2022-10-03T07:49:18.479Z,1018.33
2022-10-03T07:49:55.810Z,1018.37
2022-10-03T07:50:36.358Z,1018.38
2022-10-03T07:51:16.802Z,1018.42
2022-10-03T07:51:57.289Z,1018.39
2022-10-03T07:52:37.830Z,1018.38
2022-10-03T07:53:18.256Z,1018.4
2022-10-03T07:53:58.770Z,1018.43
2022-10-03T07:54:39.258Z,1018.41
2022-10-03T07:56:01.700Z,1018.41
2022-10-03T07:56:41.411Z,1018.43
2022-10-03T07:57:21.970Z,1018.42
2022-10-03T07:58:02.411Z,1018.42
2022-10-03T07:58:42.913Z,1018.39
2022-10-03T07:59:23.379Z,1018.42
2022-10-03T08:00:03.866Z,1018.48
2022-10-03T08:00:44.470Z,1018.42
2022-10-03T08:01:24.861Z,1018.46
2022-10-03T08:02:05.382Z,1018.44
2022-10-03T08:02:45.954Z,1018.42
2022-10-03T08:03:26.463Z,1018.42
2022-10-03T08:04:07.100Z,1018.45
2022-10-03T08:04:47.649Z,1018.46
2022-10-03T08:05:28.056Z,1018.51
2022-10-03T08:06:08.528Z,1018.45
2022-10-03T08:06:49.032Z,1018.46
2022-10-03T08:07:29.549Z,1018.47
2022-10-03T08:08:10.024Z,1018.47
2022-10-03T08:08:50.513Z,1018.46
2022-10-03T08:09:31.058Z,1018.46
2022-10-03T08:10:11.523Z,1018.49
2022-10-03T08:10:52.055Z,1018.51
2022-10-03T08:11:32.483Z,1018.55
2022-10-03T08:12:12.991Z,1018.56
2022-10-03T08:12:53.478Z,1018.57
2022-10-03T08:13:33.954Z,1018.54
2022-10-03T08:14:14.452Z,1018.56
2022-10-03T08:14:54.929Z,1018.55
2022-10-03T08:15:35.531Z,1018.57
2022-10-03T08:16:16.003Z,1018.54
2022-10-03T08:16:56.479Z,1018.56
2022-10-03T08:17:36.953Z,1018.56
2022-10-03T08:18:17.512Z,1018.53
2022-10-03T08:18:57.963Z,1018.56
2022-10-03T08:19:38.424Z,1018.58
2022-10-03T08:20:18.971Z,1018.56
2022-10-03T08:20:59.518Z,1018.58
2022-10-03T08:21:40.378Z,1018.59
2022-10-03T08:22:20.605Z,1018.59
2022-10-03T08:23:01.179Z,1018.59
2022-10-03T08:23:41.620Z,1018.59
2022-10-03T08:24:22.184Z,1018.58
2022-10-03T08:25:03.257Z,1018.57
2022-10-03T08:25:43.109Z,1018.55
2022-10-03T08:26:23.594Z,1018.6
2022-10-03T08:27:04.108Z,1018.57
2022-10-03T08:27:44.636Z,1018.59
2022-10-03T08:28:25.204Z,1018.58
2022-10-03T08:29:05.603Z,1018.63
2022-10-03T08:29:46.939Z,1018.62
2022-10-03T08:30:27.425Z,1018.62
2022-10-03T08:31:08.031Z,1018.62
2022-10-03T08:31:48.525Z,1018.6
2022-10-03T08:32:29.112Z,1018.65
2022-10-03T08:33:09.601Z,1018.65
2022-10-03T08:33:50.115Z,1018.62
2022-10-03T08:34:30.619Z,1018.65
2022-10-03T08:35:51.693Z,1018.62
2022-10-03T08:36:32.154Z,1018.64
2022-10-03T08:37:12.672Z,1018.61
2022-10-03T08:38:33.665Z,1018.65
2022-10-03T08:39:14.158Z,1018.66
2022-10-03T08:39:54.623Z,1018.67
2022-10-03T08:40:35.117Z,1018.68
2022-10-03T08:41:15.615Z,1018.69
2022-10-03T08:41:56.152Z,1018.67
2022-10-03T08:42:36.635Z,1018.68
2022-10-03T08:43:17.155Z,1018.71
2022-10-03T08:43:57.661Z,1018.68
2022-10-03T08:44:38.180Z,1018.66
2022-10-03T08:45:18.695Z,1018.68
2022-10-03T08:45:59.305Z,1018.66
2022-10-03T08:46:39.933Z,1018.65
2022-10-03T08:47:20.422Z,1018.66
2022-10-03T08:48:00.916Z,1018.66
2022-10-03T08:48:41.397Z,1018.65
2022-10-03T08:49:22.008Z,1018.63
2022-10-03T08:50:05.405Z,1018.65
2022-10-03T08:50:43.026Z,1018.63
2022-10-03T08:51:23.626Z,1018.64
2022-10-03T08:52:04.135Z,1018.64
2022-10-03T08:52:44.670Z,1018.66
2022-10-03T08:53:25.789Z,1018.61
2022-10-03T08:54:06.300Z,1018.6
2022-10-03T08:54:46.783Z,1018.62
2022-10-03T08:55:27.379Z,1018.64
2022-10-03T08:56:07.813Z,1018.59
2022-10-03T08:56:48.289Z,1018.63
2022-10-03T08:57:28.787Z,1018.59
2022-10-03T08:58:09.290Z,1018.63
2022-10-03T08:58:49.785Z,1018.61
2022-10-03T08:59:30.275Z,1018.63
2022-10-03T09:00:10.808Z,1018.62
2022-10-03T09:00:51.802Z,1018.62
2022-10-03T09:01:32.408Z,1018.59
2022-10-03T09:02:12.930Z,1018.55
2022-10-03T09:03:13.907Z,1018.57
2022-10-03T09:03:37.988Z,1018.56
2022-10-03T09:04:14.329Z,1018.54
2022-10-03T09:04:54.840Z,1018.55
2022-10-03T09:05:35.330Z,1018.55
2022-10-03T09:06:15.869Z,1018.56
2022-10-03T09:07:16.374Z,1018.57
2022-10-03T09:07:36.810Z,1018.57
2022-10-03T09:08:17.303Z,1018.59
2022-10-03T09:08:57.881Z,1018.56
2022-10-03T09:09:38.338Z,1018.57
2022-10-03T09:12:37.068Z,1018.57
2022-10-03T09:13:17.546Z,1018.54
2022-10-03T09:13:58.053Z,1018.51
2022-10-03T09:14:38.538Z,1018.52
2022-10-03T09:15:19.016Z,1018.53
2022-10-03T09:15:59.468Z,1018.49
2022-10-03T09:16:40.268Z,1018.49
2022-10-03T09:17:20.496Z,1018.54
2022-10-03T09:18:00.980Z,1018.51
2022-10-03T09:18:41.461Z,1018.5
2022-10-03T09:19:21.909Z,1018.53
2022-10-03T09:20:02.460Z,1018.5
2022-10-03T09:20:42.931Z,1018.51
2022-10-03T09:21:23.447Z,1018.54
2022-10-03T09:22:03.916Z,1018.54
2022-10-03T09:22:44.371Z,1018.53
2022-10-03T09:23:24.973Z,1018.52
2022-10-03T09:24:05.473Z,1018.53
2022-10-03T09:24:46.066Z,1018.55
2022-10-03T09:25:26.563Z,1018.54
2022-10-03T09:26:07.022Z,1018.57
2022-10-03T09:26:47.518Z,1018.58
2022-10-03T09:27:28.010Z,1018.57
2022-10-03T09:28:08.576Z,1018.59
2022-10-03T09:28:48.994Z,1018.61
2022-10-03T09:29:29.545Z,1018.6
2022-10-03T09:30:10.017Z,1018.57
2022-10-03T09:30:50.586Z,1018.58
2022-10-03T09:31:31.035Z,1018.56
2022-10-03T09:32:11.553Z,1018.58
2022-10-03T09:32:52.039Z,1018.58
2022-10-03T09:33:32.541Z,1018.62
2022-10-03T09:34:13.094Z,1018.61
2022-10-03T09:34:53.523Z,1018.57
2022-10-03T09:35:34.183Z,1018.61
2022-10-03T09:36:14.662Z,1018.58
2022-10-03T09:36:55.267Z,1018.57
2022-10-03T09:37:35.726Z,1018.57
2022-10-03T09:38:16.197Z,1018.56
2022-10-03T09:38:56.756Z,1018.57
2022-10-03T09:39:37.261Z,1018.58
2022-10-03T09:40:17.849Z,1018.56
2022-10-03T09:40:58.233Z,1018.57
2022-10-03T09:41:38.897Z,1018.56
2022-10-03T09:42:59.726Z,1018.58
2022-10-03T09:43:40.277Z,1018.57
2022-10-03T09:44:20.727Z,1018.59
2022-10-03T09:45:01.312Z,1018.56
2022-10-03T09:45:41.876Z,1018.56
2022-10-03T09:46:22.428Z,1018.54
2022-10-03T09:48:21.460Z,1018.56
2022-10-03T09:49:01.899Z,1018.55
2022-10-03T09:49:42.367Z,1018.58
2022-10-03T09:50:22.795Z,1018.54